Time;durP1;ratioP1;P1;durP2;ratioP2;P2;SDS_P1;SDS_P2;PMS_P1;PMS_P2;Temp;Humidity;BMP_temperature;BMP_pressure;BME280_temperature;BME280_humidity;BME280_pressure;Samples;Min_cycle;Max_cycle;Signal;HPM_P1;HPM_P2
2024/01/16 00:02:23;;;;;;;1.17;1.08;;;;;;;;;;5082314;28;20053;-81
2024/01/16 00:04:50;;;;;;;3.30;1.10;;;;;;;;;;5083013;28;20053;-81
2024/01/16 00:07:18;;;;;;;5.07;1.17;;;;;;;;;;5073917;28;20048;-81
2024/01/16 00:09:45;;;;;;;2.47;1.10;;;;;;;;;;5081139;28;20098;-81
2024/01/16 00:12:12;;;;;;;2.42;1.10;;;;;;;;;;5073904;28;20062;-81
2024/01/16 00:14:40;;;;;;;2.00;1.70;;;;;;;;;;5082134;28;20060;-81
2024/01/16 00:17:07;;;;;;;3.55;1.05;;;;;;;;;;5081295;28;20056;-81
2024/01/16 00:19:34;;;;;;;2.72;0.90;;;;;;;;;;5081520;28;20052;-81
2024/01/16 00:22:04;;;;;;;4.57;1.05;;;;;;;;;;5081925;28;20087;-81
2024/01/16 00:24:31;;;;;;;4.53;0.98;;;;;;;;;;5080806;28;20136;-82
2024/01/16 00:26:59;;;;;;;2.40;1.00;;;;;;;;;;5079915;28;20040;-81
2024/01/16 00:29:26;;;;;;;1.08;0.93;;;;;;;;;;5079537;28;20045;-82
2024/01/16 00:31:53;;;;;;;1.33;0.90;;;;;;;;;;5079642;28;20510;-81
2024/01/16 00:34:20;;;;;;;2.30;0.85;;;;;;;;;;5081170;28;20041;-81
2024/01/16 00:36:48;;;;;;;2.80;1.33;;;;;;;;;;5080629;28;20063;-81
2024/01/16 00:39:15;;;;;;;2.88;1.10;;;;;;;;;;5081241;28;20048;-81
2024/01/16 00:41:42;;;;;;;1.23;0.82;;;;;;;;;;5079719;28;20056;-81
2024/01/16 00:44:11;;;;;;;4.03;1.13;;;;;;;;;;5079431;28;20063;-81
2024/01/16 00:46:38;;;;;;;1.67;0.90;;;;;;;;;;5080884;28;20045;-82
2024/01/16 00:49:07;;;;;;;0.88;0.88;;;;;;;;;;5081155;28;20094;-81
2024/01/16 00:51:35;;;;;;;1.60;0.98;;;;;;;;;;5081077;28;20075;-81
2024/01/16 00:54:02;;;;;;;2.63;0.90;;;;;;;;;;5079858;28;20052;-81
2024/01/16 00:56:32;;;;;;;1.92;1.27;;;;;;;;;;5080315;28;20125;-81
2024/01/16 00:58:59;;;;;;;1.10;1.00;;;;;;;;;;5081250;28;20048;-81
2024/01/16 01:01:26;;;;;;;1.85;0.93;;;;;;;;;;5080158;28;20099;-81
2024/01/16 01:03:53;;;;;;;2.58;1.38;;;;;;;;;;5081142;28;20052;-81
2024/01/16 01:06:21;;;;;;;2.70;1.00;;;;;;;;;;5079939;28;20044;-81
2024/01/16 01:08:51;;;;;;;2.22;1.50;;;;;;;;;;5080959;28;20067;-81
2024/01/16 01:11:18;;;;;;;6.18;1.20;;;;;;;;;;5079661;28;20514;-82
2024/01/16 01:13:45;;;;;;;3.33;1.42;;;;;;;;;;5079751;28;20049;-81
2024/01/16 01:16:12;;;;;;;4.05;1.08;;;;;;;;;;5070924;28;20056;-81
2024/01/16 01:18:40;;;;;;;1.58;0.90;;;;;;;;;;5079460;28;20048;-81
2024/01/16 01:21:07;;;;;;;1.10;1.00;;;;;;;;;;5076971;28;20502;-81
2024/01/16 01:23:34;;;;;;;1.15;1.00;;;;;;;;;;5078723;28;20460;-81
2024/01/16 01:26:03;;;;;;;1.45;1.15;;;;;;;;;;5078275;28;20102;-81
2024/01/16 01:28:31;;;;;;;2.55;1.10;;;;;;;;;;5078150;28;20060;-81
2024/01/16 01:30:58;;;;;;;1.95;1.13;;;;;;;;;;5078165;28;20078;-81
2024/01/16 01:33:25;;;;;;;1.40;1.00;;;;;;;;;;5076739;28;20102;-81
2024/01/16 01:35:53;;;;;;;3.47;1.08;;;;;;;;;;5076227;28;20062;-81
2024/01/16 01:38:20;;;;;;;3.25;1.10;;;;;;;;;;5076052;28;20048;-81
2024/01/16 01:40:47;;;;;;;2.63;1.20;;;;;;;;;;5076133;28;20084;-81
2024/01/16 01:43:21;;;;;;;2.60;1.10;;;;;;;;;;5076272;28;20049;-81
2024/01/16 01:45:57;;;;;;;3.35;1.30;;;;;;;;;;5076581;28;20048;-81
2024/01/16 01:48:24;;;;;;;2.25;1.10;;;;;;;;;;5076898;28;20048;-82
2024/01/16 01:50:51;;;;;;;1.25;0.93;;;;;;;;;;5076627;28;20102;-81
2024/01/16 01:53:19;;;;;;;2.40;1.15;;;;;;;;;;5076992;28;20509;-81
2024/01/16 01:55:47;;;;;;;3.92;1.35;;;;;;;;;;5076536;28;20131;-82
2024/01/16 01:58:14;;;;;;;1.23;1.00;;;;;;;;;;5068062;28;20055;-81
2024/01/16 02:00:41;;;;;;;4.25;1.20;;;;;;;;;;5078234;28;20464;-82
2024/01/16 02:03:08;;;;;;;3.15;1.20;;;;;;;;;;5077113;28;20052;-81
2024/01/16 02:05:37;;;;;;;1.00;0.77;;;;;;;;;;5077816;28;20045;-81
2024/01/16 02:08:04;;;;;;;0.93;0.82;;;;;;;;;;5077157;28;20041;-81
2024/01/16 02:10:32;;;;;;;2.15;1.00;;;;;;;;;;5076850;28;20049;-81
2024/01/16 02:13:00;;;;;;;2.22;1.20;;;;;;;;;;5077151;28;20045;-81
2024/01/16 02:15:27;;;;;;;2.55;1.02;;;;;;;;;;5075495;28;20052;-81
2024/01/16 02:17:55;;;;;;;2.53;1.08;;;;;;;;;;5076268;28;20098;-81
2024/01/16 02:20:22;;;;;;;1.17;1.00;;;;;;;;;;5076083;28;20162;-82
2024/01/16 02:22:53;;;;;;;3.40;1.08;;;;;;;;;;5076069;28;20048;-81
2024/01/16 02:25:20;;;;;;;1.63;1.00;;;;;;;;;;5076913;28;20102;-81
2024/01/16 02:27:47;;;;;;;2.95;1.33;;;;;;;;;;5076004;28;20052;-81
2024/01/16 02:30:15;;;;;;;2.55;0.98;;;;;;;;;;5077183;28;20555;-81
2024/01/16 02:32:42;;;;;;;1.95;1.00;;;;;;;;;;5076073;28;20052;-81
2024/01/16 02:35:10;;;;;;;1.95;1.10;;;;;;;;;;5076538;28;20055;-81
2024/01/16 02:37:37;;;;;;;1.15;1.05;;;;;;;;;;5077764;28;20406;-81
2024/01/16 02:40:06;;;;;;;2.80;1.20;;;;;;;;;;5078179;28;20049;-81
2024/01/16 02:42:33;;;;;;;1.10;1.08;;;;;;;;;;5077396;28;20044;-81
2024/01/16 02:45:01;;;;;;;4.15;1.60;;;;;;;;;;5076702;28;20048;-81
2024/01/16 02:47:29;;;;;;;5.68;1.60;;;;;;;;;;5075399;28;20056;-81
2024/01/16 02:49:57;;;;;;;2.30;1.15;;;;;;;;;;5075925;28;20128;-81
2024/01/16 02:52:24;;;;;;;6.93;1.95;;;;;;;;;;5075544;28;20048;-81
2024/01/16 02:54:51;;;;;;;3.20;1.30;;;;;;;;;;5075825;28;20041;-81
2024/01/16 02:57:18;;;;;;;3.92;1.42;;;;;;;;;;5076064;28;20056;-81
2024/01/16 02:59:46;;;;;;;5.40;1.65;;;;;;;;;;5075871;28;20064;-81
2024/01/16 03:02:13;;;;;;;2.30;1.00;;;;;;;;;;5068222;28;20053;-81
2024/01/16 03:04:40;;;;;;;3.10;0.93;;;;;;;;;;5076433;28;20059;-81
2024/01/16 03:07:08;;;;;;;3.20;1.65;;;;;;;;;;5075437;28;20059;-81
2024/01/16 03:09:35;;;;;;;1.83;1.20;;;;;;;;;;5076387;28;20044;-82
2024/01/16 03:12:02;;;;;;;3.78;1.00;;;;;;;;;;5075701;28;20048;-82
2024/01/16 03:14:33;;;;;;;2.67;1.00;;;;;;;;;;5074604;28;20151;-81
2024/01/16 03:17:04;;;;;;;2.67;0.90;;;;;;;;;;5076253;28;20413;-81
2024/01/16 03:19:31;;;;;;;3.28;1.00;;;;;;;;;;5066571;28;20094;-81
2024/01/16 03:21:58;;;;;;;3.05;1.20;;;;;;;;;;5074354;28;20106;-81
2024/01/16 03:24:26;;;;;;;2.10;0.70;;;;;;;;;;5075695;28;20098;-81
2024/01/16 03:26:53;;;;;;;2.63;1.30;;;;;;;;;;5074254;28;20052;-81
2024/01/16 03:29:21;;;;;;;2.67;1.40;;;;;;;;;;5075019;28;20044;-82
2024/01/16 03:31:48;;;;;;;2.83;1.25;;;;;;;;;;5075924;28;20048;-81
2024/01/16 03:34:15;;;;;;;2.47;0.98;;;;;;;;;;5076037;28;20098;-81
2024/01/16 03:36:43;;;;;;;4.13;1.30;;;;;;;;;;5076527;28;20053;-81
2024/01/16 03:39:11;;;;;;;1.20;1.00;;;;;;;;;;5075085;28;20110;-81
2024/01/16 03:41:39;;;;;;;2.67;1.10;;;;;;;;;;5074108;28;20102;-81
2024/01/16 03:44:06;;;;;;;2.78;1.20;;;;;;;;;;5075773;28;20110;-81
2024/01/16 03:46:33;;;;;;;2.25;1.13;;;;;;;;;;5075136;28;20135;-81
2024/01/16 03:49:00;;;;;;;0.95;0.95;;;;;;;;;;5074458;28;20482;-81
2024/01/16 03:51:28;;;;;;;2.95;1.20;;;;;;;;;;5073741;28;20048;-81
2024/01/16 03:53:55;;;;;;;2.33;1.08;;;;;;;;;;5076181;28;20049;-82
2024/01/16 03:56:23;;;;;;;1.45;0.93;;;;;;;;;;5073818;28;20044;-81
2024/01/16 03:58:50;;;;;;;2.45;1.60;;;;;;;;;;5073920;28;20051;-81
2024/01/16 04:01:17;;;;;;;1.55;1.20;;;;;;;;;;5073638;28;20047;-81
2024/01/16 04:03:45;;;;;;;2.45;1.00;;;;;;;;;;5074208;28;20091;-81
2024/01/16 04:06:18;;;;;;;2.45;0.98;;;;;;;;;;5066751;28;20055;-81
2024/01/16 04:08:46;;;;;;;3.42;1.15;;;;;;;;;;5074617;28;20106;-81
2024/01/16 04:11:14;;;;;;;2.65;1.00;;;;;;;;;;5074541;28;20078;-81
2024/01/16 04:13:42;;;;;;;1.85;1.08;;;;;;;;;;5074411;28;20413;-81
2024/01/16 04:16:09;;;;;;;3.15;1.40;;;;;;;;;;5074037;28;20055;-81
2024/01/16 04:18:37;;;;;;;0.70;0.70;;;;;;;;;;5075688;28;20137;-81
2024/01/16 04:21:05;;;;;;;1.42;1.10;;;;;;;;;;5075721;28;20067;-81
2024/01/16 04:23:32;;;;;;;2.78;1.40;;;;;;;;;;5075726;28;20114;-82
2024/01/16 04:25:59;;;;;;;1.58;1.30;;;;;;;;;;5075382;28;20084;-81
2024/01/16 04:28:26;;;;;;;2.90;1.40;;;;;;;;;;5073997;28;20048;-82
2024/01/16 04:30:54;;;;;;;4.65;2.30;;;;;;;;;;5073682;28;20490;-82
2024/01/16 04:33:21;;;;;;;6.55;2.50;;;;;;;;;;5073766;28;20051;-82
2024/01/16 04:35:48;;;;;;;4.65;2.03;;;;;;;;;;5076718;28;20135;-82
2024/01/16 04:38:16;;;;;;;6.65;2.55;;;;;;;;;;5078516;28;20572;-82
2024/01/16 04:40:43;;;;;;;3.53;1.77;;;;;;;;;;5077626;28;20456;-82
2024/01/16 04:43:10;;;;;;;7.00;2.20;;;;;;;;;;5077120;28;20048;-81
2024/01/16 04:45:38;;;;;;;6.82;2.10;;;;;;;;;;5078018;28;20051;-81
2024/01/16 04:48:05;;;;;;;8.88;2.63;;;;;;;;;;5078021;28;20048;-81
2024/01/16 04:50:33;;;;;;;7.82;3.80;;;;;;;;;;5078142;28;20041;-81
2024/01/16 04:53:00;;;;;;;5.70;2.17;;;;;;;;;;5079741;28;20045;-81
2024/01/16 04:55:30;;;;;;;6.05;2.47;;;;;;;;;;5077728;28;20050;-81
2024/01/16 04:57:59;;;;;;;11.20;6.40;;;;;;;;;;5078064;28;20048;-81
2024/01/16 05:00:27;;;;;;;6.43;3.85;;;;;;;;;;5079404;28;20139;-81
2024/01/16 05:02:54;;;;;;;4.35;2.33;;;;;;;;;;5075609;28;20049;-81
2024/01/16 05:05:21;;;;;;;7.90;4.75;;;;;;;;;;5077693;28;20395;-81
2024/01/16 05:07:51;;;;;;;4.50;3.17;;;;;;;;;;5079037;28;20044;-81
2024/01/16 05:10:18;;;;;;;20.77;9.73;;;;;;;;;;5078673;28;20041;-81
2024/01/16 05:12:45;;;;;;;10.48;5.35;;;;;;;;;;5077970;28;20072;-81
2024/01/16 05:15:12;;;;;;;10.02;6.80;;;;;;;;;;5069702;28;20490;-81
2024/01/16 05:17:40;;;;;;;3.90;1.60;;;;;;;;;;5078664;28;20062;-81
2024/01/16 05:20:10;;;;;;;6.22;2.70;;;;;;;;;;5078555;28;20111;-81
2024/01/16 05:22:40;;;;;;;4.03;1.42;;;;;;;;;;5077827;28;20494;-81
2024/01/16 05:25:08;;;;;;;3.95;1.40;;;;;;;;;;5079000;28;20053;-81
2024/01/16 05:27:35;;;;;;;6.38;1.92;;;;;;;;;;5078361;28;20517;-81
2024/01/16 05:30:03;;;;;;;2.88;1.50;;;;;;;;;;5078899;28;20117;-81
2024/01/16 05:32:30;;;;;;;2.00;1.60;;;;;;;;;;5079676;28;20048;-81
2024/01/16 05:34:57;;;;;;;4.35;2.20;;;;;;;;;;5080582;28;20417;-81
2024/01/16 05:37:25;;;;;;;4.03;2.88;;;;;;;;;;5079433;28;20048;-81
2024/01/16 05:39:52;;;;;;;9.13;5.15;;;;;;;;;;5079960;28;20048;-81
2024/01/16 05:42:19;;;;;;;17.02;4.95;;;;;;;;;;5078912;28;20064;-81
2024/01/16 05:44:46;;;;;;;3.80;2.28;;;;;;;;;;5078885;28;20052;-81
2024/01/16 05:47:14;;;;;;;7.53;2.88;;;;;;;;;;5077700;28;20494;-81
2024/01/16 05:49:42;;;;;;;3.30;2.25;;;;;;;;;;5077291;28;20056;-80
2024/01/16 05:52:10;;;;;;;5.18;2.55;;;;;;;;;;5078002;28;20055;-81
2024/01/16 05:54:37;;;;;;;2.42;2.17;;;;;;;;;;5081866;28;20416;-81
2024/01/16 05:57:04;;;;;;;3.28;2.15;;;;;;;;;;5081417;28;20063;-80
2024/01/16 05:59:33;;;;;;;2.50;2.30;;;;;;;;;;5080544;28;20045;-80
2024/01/16 06:02:00;;;;;;;5.65;2.63;;;;;;;;;;5081583;28;20044;-80
2024/01/16 06:04:27;;;;;;;3.80;1.80;;;;;;;;;;5081072;28;20056;-81
2024/01/16 06:06:54;;;;;;;2.92;1.70;;;;;;;;;;5080968;28;20045;-80
2024/01/16 06:09:22;;;;;;;6.40;4.20;;;;;;;;;;5080220;28;20510;-81
2024/01/16 06:11:49;;;;;;;3.85;2.03;;;;;;;;;;5080356;28;20052;-81
2024/01/16 06:14:21;;;;;;;2.15;1.75;;;;;;;;;;5079712;28;20066;-81
2024/01/16 06:16:49;;;;;;;8.52;2.13;;;;;;;;;;5080507;28;20053;-80
2024/01/16 06:19:16;;;;;;;9.77;4.50;;;;;;;;;;5081049;28;20188;-80
2024/01/16 06:21:43;;;;;;;13.77;5.18;;;;;;;;;;5081807;28;20108;-81
2024/01/16 06:24:13;;;;;;;12.18;5.18;;;;;;;;;;5080069;28;20051;-81
2024/01/16 06:26:40;;;;;;;17.60;8.18;;;;;;;;;;5081975;28;20059;-81
2024/01/16 06:29:09;;;;;;;15.13;7.90;;;;;;;;;;5080793;28;20044;-81
2024/01/16 06:31:54;;;;;;;14.38;6.72;;;;;;;;;;5080245;28;20405;-81
2024/01/16 06:34:21;;;;;;;15.65;8.30;;;;;;;;;;5073781;28;20049;-80
2024/01/16 06:36:48;;;;;;;8.48;5.22;;;;;;;;;;5080543;28;20040;-80
2024/01/16 06:39:16;;;;;;;7.75;4.15;;;;;;;;;;5080204;28;20044;-80
2024/01/16 06:41:43;;;;;;;10.70;5.00;;;;;;;;;;5082036;28;20052;-80
2024/01/16 06:44:10;;;;;;;9.35;5.07;;;;;;;;;;5081070;28;20063;-81
2024/01/16 06:46:38;;;;;;;7.57;3.75;;;;;;;;;;5081963;28;20537;-81
2024/01/16 06:49:05;;;;;;;8.05;4.35;;;;;;;;;;5080458;28;20048;-81
2024/01/16 06:51:32;;;;;;;8.27;3.60;;;;;;;;;;5080904;28;20052;-81
2024/01/16 06:54:00;;;;;;;10.77;4.35;;;;;;;;;;5080606;28;20055;-81
2024/01/16 06:56:27;;;;;;;6.15;3.20;;;;;;;;;;5081155;28;20067;-81
2024/01/16 06:58:54;;;;;;;9.85;3.40;;;;;;;;;;5080643;28;20048;-80
2024/01/16 07:01:22;;;;;;;7.82;3.97;;;;;;;;;;5079245;28;20048;-81
2024/01/16 07:03:49;;;;;;;8.52;4.40;;;;;;;;;;5080875;28;20075;-81
2024/01/16 07:06:17;;;;;;;7.50;3.80;;;;;;;;;;5079458;28;20048;-81
2024/01/16 07:08:44;;;;;;;6.45;3.42;;;;;;;;;;5079341;28;20076;-81
2024/01/16 07:11:13;;;;;;;4.50;2.70;;;;;;;;;;5077863;28;20048;-81
2024/01/16 07:13:41;;;;;;;6.32;2.45;;;;;;;;;;5077968;28;20108;-81
2024/01/16 07:16:11;;;;;;;6.70;2.70;;;;;;;;;;5077782;28;20075;-81
2024/01/16 07:18:40;;;;;;;5.25;2.10;;;;;;;;;;5079413;28;20052;-81
2024/01/16 07:21:18;;;;;;;10.02;2.53;;;;;;;;;;5078277;28;20417;-81
2024/01/16 07:23:45;;;;;;;11.65;2.55;;;;;;;;;;5077569;28;20463;-81
2024/01/16 07:26:12;;;;;;;7.43;2.47;;;;;;;;;;5077647;28;20421;-81
2024/01/16 07:28:39;;;;;;;7.68;2.95;;;;;;;;;;5078318;28;20059;-81
2024/01/16 07:31:06;;;;;;;7.53;3.00;;;;;;;;;;5078618;28;20693;-81
2024/01/16 07:33:34;;;;;;;11.13;3.40;;;;;;;;;;5079040;28;20063;-81
2024/01/16 07:36:01;;;;;;;6.15;2.78;;;;;;;;;;5077307;28;20567;-81
2024/01/16 07:38:29;;;;;;;4.65;2.10;;;;;;;;;;5078009;28;20056;-81
2024/01/16 07:40:56;;;;;;;4.53;2.42;;;;;;;;;;5078290;28;20516;-80
2024/01/16 07:43:23;;;;;;;3.20;2.58;;;;;;;;;;5077677;28;20049;-81
2024/01/16 07:45:51;;;;;;;5.00;2.72;;;;;;;;;;5077640;28;20056;-81
2024/01/16 07:48:18;;;;;;;5.25;2.33;;;;;;;;;;5077224;28;20060;-81
2024/01/16 07:50:46;;;;;;;6.63;2.80;;;;;;;;;;5077778;28;20045;-81
2024/01/16 07:53:15;;;;;;;9.30;2.28;;;;;;;;;;5070588;28;20044;-81
2024/01/16 07:55:42;;;;;;;4.88;2.30;;;;;;;;;;5078740;28;20502;-81
2024/01/16 07:58:12;;;;;;;15.77;6.47;;;;;;;;;;5078708;28;20405;-81
2024/01/16 08:00:40;;;;;;;14.18;5.72;;;;;;;;;;5077515;28;20052;-81
2024/01/16 08:03:11;;;;;;;6.85;4.10;;;;;;;;;;5078277;28;20086;-81
2024/01/16 08:05:38;;;;;;;6.65;2.50;;;;;;;;;;5077053;28;20055;-81
2024/01/16 08:08:06;;;;;;;4.68;2.90;;;;;;;;;;5076070;28;20049;-80
2024/01/16 08:10:33;;;;;;;5.05;2.45;;;;;;;;;;5080903;28;20048;-81
2024/01/16 08:13:00;;;;;;;13.43;4.30;;;;;;;;;;5082514;28;20394;-81
2024/01/16 08:15:27;;;;;;;11.13;3.78;;;;;;;;;;5080743;28;20040;-81
2024/01/16 08:17:54;;;;;;;4.55;2.42;;;;;;;;;;5081082;28;20102;-81
2024/01/16 08:20:22;;;;;;;6.93;2.50;;;;;;;;;;5082011;28;20505;-81
2024/01/16 08:22:50;;;;;;;5.63;2.70;;;;;;;;;;5080653;28;20052;-81
2024/01/16 08:25:17;;;;;;;4.18;1.98;;;;;;;;;;5080337;28;20074;-81
2024/01/16 08:27:44;;;;;;;3.00;1.80;;;;;;;;;;5081181;28;20052;-81
2024/01/16 08:30:12;;;;;;;5.35;2.45;;;;;;;;;;5082485;28;20056;-81
2024/01/16 08:32:39;;;;;;;6.93;1.75;;;;;;;;;;5081443;28;20046;-81
2024/01/16 08:35:07;;;;;;;3.10;2.67;;;;;;;;;;5081561;28;20641;-81
2024/01/16 08:37:34;;;;;;;4.93;3.13;;;;;;;;;;5080705;28;20049;-81
2024/01/16 08:40:04;;;;;;;4.50;1.73;;;;;;;;;;5080231;28;20054;-81
2024/01/16 08:42:32;;;;;;;4.47;1.88;;;;;;;;;;5076447;28;20051;-81
2024/01/16 08:44:59;;;;;;;6.20;2.05;;;;;;;;;;5080570;28;20490;-81
2024/01/16 08:47:26;;;;;;;3.53;1.63;;;;;;;;;;5080575;28;20059;-81
2024/01/16 08:49:53;;;;;;;4.63;1.60;;;;;;;;;;5080610;28;20045;-81
2024/01/16 08:52:21;;;;;;;6.90;2.03;;;;;;;;;;5080654;28;20072;-81
2024/01/16 08:54:48;;;;;;;5.82;2.30;;;;;;;;;;5081525;28;20060;-81
2024/01/16 08:57:15;;;;;;;2.97;1.42;;;;;;;;;;5080361;28;20052;-81
2024/01/16 08:59:44;;;;;;;1.95;1.65;;;;;;;;;;5081581;28;20059;-81
2024/01/16 09:02:12;;;;;;;2.97;1.60;;;;;;;;;;5079534;28;20049;-81
2024/01/16 09:04:39;;;;;;;7.18;1.70;;;;;;;;;;5079501;28;20048;-81
2024/01/16 09:07:07;;;;;;;3.15;1.60;;;;;;;;;;5077286;28;20052;-82
2024/01/16 09:09:34;;;;;;;4.03;1.60;;;;;;;;;;5076197;28;20068;-82
2024/01/16 09:12:02;;;;;;;1.67;1.35;;;;;;;;;;5076847;28;20055;-82
2024/01/16 09:14:30;;;;;;;4.03;1.48;;;;;;;;;;5074982;28;20040;-82
2024/01/16 09:16:58;;;;;;;1.50;1.40;;;;;;;;;;5076015;28;20098;-82
2024/01/16 09:19:25;;;;;;;3.90;2.30;;;;;;;;;;5076025;28;20053;-83
2024/01/16 09:21:54;;;;;;;2.30;1.75;;;;;;;;;;5074723;28;20053;-82
2024/01/16 09:24:21;;;;;;;5.18;2.40;;;;;;;;;;5075905;28;20048;-83
2024/01/16 09:26:48;;;;;;;4.70;2.30;;;;;;;;;;5074950;28;20052;-82
2024/01/16 09:29:16;;;;;;;3.60;2.65;;;;;;;;;;5074977;28;20100;-83
2024/01/16 09:31:43;;;;;;;4.00;1.70;;;;;;;;;;5076725;28;20051;-83
2024/01/16 09:34:13;;;;;;;2.13;1.50;;;;;;;;;;5074907;28;20056;-82
2024/01/16 09:36:40;;;;;;;4.13;1.50;;;;;;;;;;5075046;28;20075;-83
2024/01/16 09:39:08;;;;;;;5.28;1.77;;;;;;;;;;5074837;28;20056;-82
2024/01/16 09:41:35;;;;;;;3.38;1.67;;;;;;;;;;5074621;28;20060;-83
2024/01/16 09:44:03;;;;;;;2.78;1.70;;;;;;;;;;5074948;28;20135;-83
2024/01/16 09:46:31;;;;;;;7.05;2.10;;;;;;;;;;5077542;28;20052;-83
2024/01/16 09:49:01;;;;;;;5.38;2.67;;;;;;;;;;5077704;28;20048;-81
2024/01/16 09:51:29;;;;;;;3.92;1.88;;;;;;;;;;5079142;28;20048;-82
2024/01/16 09:53:57;;;;;;;3.03;1.92;;;;;;;;;;5076515;28;20098;-83
2024/01/16 09:56:24;;;;;;;4.80;2.20;;;;;;;;;;5077964;28;20052;-82
2024/01/16 09:59:02;;;;;;;4.72;1.80;;;;;;;;;;5077697;28;20064;-82
2024/01/16 10:01:29;;;;;;;2.70;1.95;;;;;;;;;;5077730;28;20048;-83
2024/01/16 10:03:58;;;;;;;6.20;2.30;;;;;;;;;;5077365;28;20048;-82
2024/01/16 10:06:27;;;;;;;6.43;1.88;;;;;;;;;;5078337;28;20147;-82
2024/01/16 10:08:55;;;;;;;4.53;1.80;;;;;;;;;;5076758;28;20049;-82
2024/01/16 10:11:22;;;;;;;5.68;2.33;;;;;;;;;;5075928;28;20052;-82
2024/01/16 10:13:50;;;;;;;4.57;2.17;;;;;;;;;;5076271;28;20055;-83
2024/01/16 10:16:17;;;;;;;5.97;2.55;;;;;;;;;;5075347;28;20421;-82
2024/01/16 10:18:44;;;;;;;3.97;2.53;;;;;;;;;;5076453;28;20045;-83
2024/01/16 10:21:22;;;;;;;5.95;2.53;;;;;;;;;;5076351;28;20052;-82
2024/01/16 10:23:50;;;;;;;4.40;2.10;;;;;;;;;;5077903;28;20165;-83
2024/01/16 10:26:20;;;;;;;5.07;2.08;;;;;;;;;;5075483;28;20052;-82
2024/01/16 10:28:47;;;;;;;2.28;1.70;;;;;;;;;;5076772;28;20048;-82
2024/01/16 10:31:14;;;;;;;2.85;2.00;;;;;;;;;;5075676;28;20040;-83
2024/01/16 10:33:42;;;;;;;7.47;2.03;;;;;;;;;;5075085;28;20433;-83
2024/01/16 10:36:10;;;;;;;3.83;1.80;;;;;;;;;;5073001;28;20045;-83
2024/01/16 10:38:39;;;;;;;2.55;2.17;;;;;;;;;;5069153;28;20414;-83
2024/01/16 10:41:07;;;;;;;4.93;2.00;;;;;;;;;;5073334;28;20101;-82
2024/01/16 10:43:35;;;;;;;5.03;1.95;;;;;;;;;;5074176;28;20456;-82
2024/01/16 10:46:09;;;;;;;6.55;1.92;;;;;;;;;;5073336;28;20064;-82
2024/01/16 10:48:36;;;;;;;;;;;;;;;;;;5073598;28;20067;-82
2024/01/16 10:51:06;;;;;;;2.88;1.95;;;;;;;;;;5073324;28;20401;-83
2024/01/16 10:53:34;;;;;;;3.65;2.00;;;;;;;;;;5073891;28;20053;-81
2024/01/16 10:56:02;;;;;;;3.78;2.45;;;;;;;;;;5073511;28;20048;-82
2024/01/16 10:58:31;;;;;;;7.00;2.47;;;;;;;;;;5072625;28;20048;-82
2024/01/16 11:01:03;;;;;;;5.70;2.60;;;;;;;;;;5072698;28;20049;-82
2024/01/16 11:03:52;;;;;;;6.13;2.50;;;;;;;;;;5072882;28;20052;-82
2024/01/16 11:06:20;;;;;;;3.72;2.30;;;;;;;;;;5065212;28;20053;-82
2024/01/16 11:08:47;;;;;;;10.05;2.78;;;;;;;;;;5072563;28;20055;-82
2024/01/16 11:11:15;;;;;;;6.63;2.60;;;;;;;;;;5072536;28;20055;-82
2024/01/16 11:13:44;;;;;;;5.90;2.45;;;;;;;;;;5072693;28;20052;-83
2024/01/16 11:16:11;;;;;;;4.80;2.28;;;;;;;;;;5072298;28;20051;-82
2024/01/16 11:18:39;;;;;;;3.53;2.28;;;;;;;;;;5072399;28;20044;-82
2024/01/16 11:21:12;;;;;;;4.53;2.20;;;;;;;;;;5073405;28;20065;-82
2024/01/16 11:23:45;;;;;;;5.47;2.45;;;;;;;;;;5072358;28;20076;-82
2024/01/16 11:26:26;;;;;;;4.13;2.00;;;;;;;;;;5073112;28;20049;-82
2024/01/16 11:28:56;;;;;;;7.10;3.05;;;;;;;;;;5072301;28;20559;-82
2024/01/16 11:31:34;;;;;;;3.70;2.13;;;;;;;;;;5072023;28;20045;-81
2024/01/16 11:34:02;;;;;;;3.05;2.30;;;;;;;;;;5075236;28;20052;-81
2024/01/16 11:36:46;;;;;;;5.97;2.25;;;;;;;;;;5076466;28;20055;-81
2024/01/16 11:39:20;;;;;;;4.15;1.90;;;;;;;;;;5068967;28;20083;-80
2024/01/16 11:41:53;;;;;;;3.83;2.05;;;;;;;;;;5076962;28;20048;-80
2024/01/16 11:44:39;;;;;;;4.55;2.22;;;;;;;;;;5077155;28;20083;-81
2024/01/16 11:47:08;;;;;;;3.15;2.00;;;;;;;;;;5081111;28;20170;-81
2024/01/16 11:49:38;;;;;;;2.80;2.20;;;;;;;;;;5082002;28;20055;-80
2024/01/16 11:52:06;;;;;;;6.57;1.90;;;;;;;;;;5080840;28;20109;-80
2024/01/16 11:54:35;;;;;;;2.60;1.85;;;;;;;;;;5064432;28;20041;-81
2024/01/16 11:57:22;;;;;;;6.47;2.13;;;;;;;;;;5080305;28;20460;-80
2024/01/16 12:00:00;;;;;;;5.30;2.10;;;;;;;;;;5080633;28;20052;-81
2024/01/16 12:02:39;;;;;;;3.35;2.08;;;;;;;;;;5080954;28;20143;-81
2024/01/16 12:05:07;;;;;;;5.28;2.10;;;;;;;;;;5083063;28;20068;-81
2024/01/16 12:07:50;;;;;;;4.75;1.80;;;;;;;;;;5081593;28;20056;-80
2024/01/16 12:10:18;;;;;;;;;;;;;;;;;;5075431;28;20049;-81
2024/01/16 12:12:46;;;;;;;3.58;1.90;;;;;;;;;;5081464;28;20443;-81
2024/01/16 12:15:17;;;;;;;4.30;1.90;;;;;;;;;;5072463;28;20391;-80
2024/01/16 12:17:54;;;;;;;2.03;1.70;;;;;;;;;;5080847;28;20045;-80
2024/01/16 12:20:23;;;;;;;3.58;1.77;;;;;;;;;;5074596;28;20052;-80
2024/01/16 12:22:56;;;;;;;3.05;1.60;;;;;;;;;;5080211;28;20049;-80
2024/01/16 12:25:24;;;;;;;2.85;1.73;;;;;;;;;;5080547;28;20056;-80
2024/01/16 12:28:13;;;;;;;3.25;1.60;;;;;;;;;;5080942;28;20048;-81
2024/01/16 12:30:51;;;;;;;10.27;1.67;;;;;;;;;;5081033;28;20044;-80
2024/01/16 12:33:22;;;;;;;3.70;1.73;;;;;;;;;;5081020;28;20413;-81
2024/01/16 12:35:49;;;;;;;3.72;1.75;;;;;;;;;;5082663;28;20044;-80
2024/01/16 12:38:17;;;;;;;3.38;1.60;;;;;;;;;;5081410;28;20078;-80
2024/01/16 12:40:47;;;;;;;3.92;1.50;;;;;;;;;;5081869;28;20132;-80
2024/01/16 12:43:16;;;;;;;2.22;2.00;;;;;;;;;;5073066;28;20056;-80
2024/01/16 12:45:44;;;;;;;1.75;1.40;;;;;;;;;;5080665;28;20090;-81
2024/01/16 12:48:12;;;;;;;2.63;1.70;;;;;;;;;;5080458;28;20049;-80
2024/01/16 12:50:39;;;;;;;2.92;1.50;;;;;;;;;;5081311;28;20052;-80
2024/01/16 12:53:11;;;;;;;2.03;1.67;;;;;;;;;;5080778;28;20128;-80
2024/01/16 12:55:39;;;;;;;5.22;2.10;;;;;;;;;;5079930;28;20044;-80
2024/01/16 12:58:20;;;;;;;4.93;1.52;;;;;;;;;;5081155;28;20053;-81
2024/01/16 13:00:50;;;;;;;;;;;;;;;;;;5080503;28;20052;-81
2024/01/16 13:03:26;;;;;;;5.18;2.35;;;;;;;;;;5079366;28;19975;-80
2024/01/16 13:06:01;;;;;;;2.75;1.80;;;;;;;;;;5080893;28;20087;-81
2024/01/16 13:08:28;;;;;;;3.63;1.95;;;;;;;;;;5080858;28;20044;-81
2024/01/16 13:11:22;;;;;;;2.17;1.73;;;;;;;;;;5080707;28;20508;-80
2024/01/16 13:14:05;;;;;;;2.72;1.70;;;;;;;;;;5079621;28;20041;-81
2024/01/16 13:16:32;;;;;;;5.25;1.70;;;;;;;;;;5079732;28;20044;-81
2024/01/16 13:19:04;;;;;;;4.28;2.20;;;;;;;;;;5079078;28;20099;-81
2024/01/16 13:21:32;;;;;;;8.75;2.42;;;;;;;;;;5079386;28;20144;-81
2024/01/16 13:23:59;;;;;;;3.83;2.20;;;;;;;;;;5080145;28;20044;-81
2024/01/16 13:26:27;;;;;;;10.52;2.53;;;;;;;;;;5078593;28;20048;-80
2024/01/16 13:28:54;;;;;;;7.53;2.05;;;;;;;;;;5080018;28;20055;-81
2024/01/16 13:31:22;;;;;;;5.13;1.85;;;;;;;;;;5078558;28;20048;-81
2024/01/16 13:33:49;;;;;;;5.38;2.08;;;;;;;;;;5079391;28;20139;-80
2024/01/16 13:36:16;;;;;;;5.20;2.10;;;;;;;;;;5080104;28;20052;-81
2024/01/16 13:39:06;;;;;;;5.28;2.22;;;;;;;;;;5078808;28;20050;-81
2024/01/16 13:41:33;;;;;;;5.85;2.58;;;;;;;;;;5078593;28;20379;-80
2024/01/16 13:44:00;;;;;;;3.38;2.30;;;;;;;;;;5078888;28;20067;-81
2024/01/16 13:46:27;;;;;;;7.78;2.83;;;;;;;;;;5077868;28;20048;-80
2024/01/16 13:49:14;;;;;;;3.90;2.38;;;;;;;;;;5065518;28;20152;-80
2024/01/16 13:51:44;;;;;;;5.05;3.05;;;;;;;;;;5078908;28;20044;-81
2024/01/16 13:54:12;;;;;;;7.00;3.17;;;;;;;;;;5078483;28;20090;-80
2024/01/16 13:56:39;;;;;;;8.32;2.75;;;;;;;;;;5078314;28;20057;-81
2024/01/16 13:59:26;;;;;;;8.23;3.00;;;;;;;;;;5078853;28;20070;-81
2024/01/16 14:01:53;;;;;;;4.85;2.97;;;;;;;;;;5078671;28;20108;-81
2024/01/16 14:04:20;;;;;;;6.10;3.30;;;;;;;;;;5079463;28;20417;-81
2024/01/16 14:06:48;;;;;;;6.70;2.92;;;;;;;;;;5079464;28;20109;-81
2024/01/16 14:09:35;;;;;;;13.48;3.88;;;;;;;;;;5077951;28;20050;-81
2024/01/16 14:12:03;;;;;;;9.23;3.78;;;;;;;;;;5077828;28;20543;-81
2024/01/16 14:14:31;;;;;;;6.38;3.55;;;;;;;;;;5077780;28;20044;-81
2024/01/16 14:16:58;;;;;;;11.15;4.35;;;;;;;;;;5078679;28;20045;-80
2024/01/16 14:19:30;;;;;;;9.00;3.70;;;;;;;;;;5077106;28;20053;-81
2024/01/16 14:21:58;;;;;;;7.72;3.63;;;;;;;;;;5077539;28;20044;-80
2024/01/16 14:24:25;;;;;;;6.10;3.97;;;;;;;;;;5077742;28;20110;-80
2024/01/16 14:26:53;;;;;;;8.07;4.30;;;;;;;;;;5077408;28;20048;-80
2024/01/16 14:29:20;;;;;;;10.48;3.83;;;;;;;;;;5078023;28;20506;-81
2024/01/16 14:31:48;;;;;;;7.35;3.85;;;;;;;;;;5077378;28;20485;-81
2024/01/16 14:34:17;;;;;;;8.93;4.38;;;;;;;;;;5076847;28;20055;-81
2024/01/16 14:36:46;;;;;;;5.72;4.10;;;;;;;;;;5070334;28;20052;-80
2024/01/16 14:39:17;;;;;;;11.52;4.47;;;;;;;;;;5068710;28;20437;-81
2024/01/16 14:41:45;;;;;;;6.90;4.75;;;;;;;;;;5074720;28;20045;-81
2024/01/16 14:44:13;;;;;;;5.57;4.20;;;;;;;;;;5074875;28;20472;-81
2024/01/16 14:46:44;;;;;;;13.35;3.97;;;;;;;;;;5074391;28;20048;-81
2024/01/16 14:49:15;;;;;;;8.57;4.18;;;;;;;;;;5070666;28;20125;-81
2024/01/16 14:51:43;;;;;;;7.18;4.40;;;;;;;;;;5076031;28;20048;-82
2024/01/16 14:54:10;;;;;;;7.45;4.22;;;;;;;;;;5074606;28;20494;-81